sensor_id;sensor_type;location;lat;lon;timestamp;P1;durP1;ratioP1;P2;durP2;ratioP2
67195;SDS011;54122;53.538;49.366;2023-05-27T00:02:02;16.88;;;5.32;;
67195;SDS011;54122;53.538;49.366;2023-05-27T00:04:28;13.35;;;6.00;;
67195;SDS011;54122;53.538;49.366;2023-05-27T00:06:54;18.20;;;6.20;;
67195;SDS011;54122;53.538;49.366;2023-05-27T00:09:21;14.48;;;5.70;;
67195;SDS011;54122;53.538;49.366;2023-05-27T00:11:47;22.10;;;5.70;;
67195;SDS011;54122;53.538;49.366;2023-05-27T00:14:13;9.70;;;5.00;;
67195;SDS011;54122;53.538;49.366;2023-05-27T00:16:40;17.15;;;5.68;;
67195;SDS011;54122;53.538;49.366;2023-05-27T00:19:06;14.13;;;5.43;;
67195;SDS011;54122;53.538;49.366;2023-05-27T00:21:33;18.02;;;5.30;;
67195;SDS011;54122;53.538;49.366;2023-05-27T00:24:00;13.85;;;5.75;;
67195;SDS011;54122;53.538;49.366;2023-05-27T00:26:26;19.20;;;5.70;;
67195;SDS011;54122;53.538;49.366;2023-05-27T00:28:52;24.88;;;6.15;;
67195;SDS011;54122;53.538;49.366;2023-05-27T00:31:18;12.80;;;5.88;;
67195;SDS011;54122;53.538;49.366;2023-05-27T00:33:45;16.75;;;6.28;;
67195;SDS011;54122;53.538;49.366;2023-05-27T00:36:11;14.57;;;5.72;;
67195;SDS011;54122;53.538;49.366;2023-05-27T00:38:37;11.75;;;4.95;;
67195;SDS011;54122;53.538;49.366;2023-05-27T00:41:03;16.25;;;5.30;;
67195;SDS011;54122;53.538;49.366;2023-05-27T00:43:30;15.25;;;5.05;;
67195;SDS011;54122;53.538;49.366;2023-05-27T00:45:57;18.30;;;5.32;;
67195;SDS011;54122;53.538;49.366;2023-05-27T00:48:24;15.10;;;5.25;;
67195;SDS011;54122;53.538;49.366;2023-05-27T00:50:51;18.63;;;5.07;;
67195;SDS011;54122;53.538;49.366;2023-05-27T00:53:17;17.02;;;5.32;;
67195;SDS011;54122;53.538;49.366;2023-05-27T00:55:46;12.70;;;5.15;;
67195;SDS011;54122;53.538;49.366;2023-05-27T00:58:13;17.88;;;5.43;;
67195;SDS011;54122;53.538;49.366;2023-05-27T01:00:40;18.52;;;5.35;;
67195;SDS011;54122;53.538;49.366;2023-05-27T01:03:06;27.55;;;6.28;;
67195;SDS011;54122;53.538;49.366;2023-05-27T01:05:33;20.60;;;5.35;;
67195;SDS011;54122;53.538;49.366;2023-05-27T01:08:03;25.40;;;4.75;;
67195;SDS011;54122;53.538;49.366;2023-05-27T01:10:52;17.25;;;5.00;;
67195;SDS011;54122;53.538;49.366;2023-05-27T01:16:01;27.97;;;5.53;;
67195;SDS011;54122;53.538;49.366;2023-05-27T01:18:31;21.35;;;5.43;;
67195;SDS011;54122;53.538;49.366;2023-05-27T01:21:00;13.90;;;4.90;;
67195;SDS011;54122;53.538;49.366;2023-05-27T01:23:33;21.20;;;4.90;;
67195;SDS011;54122;53.538;49.366;2023-05-27T01:25:59;17.65;;;5.15;;
67195;SDS011;54122;53.538;49.366;2023-05-27T01:28:26;22.77;;;5.15;;
67195;SDS011;54122;53.538;49.366;2023-05-27T01:30:53;21.77;;;5.28;;
67195;SDS011;54122;53.538;49.366;2023-05-27T01:33:24;17.48;;;5.50;;
67195;SDS011;54122;53.538;49.366;2023-05-27T01:35:58;24.05;;;6.28;;
67195;SDS011;54122;53.538;49.366;2023-05-27T01:38:32;19.92;;;4.43;;
67195;SDS011;54122;53.538;49.366;2023-05-27T01:41:01;18.48;;;5.30;;
67195;SDS011;54122;53.538;49.366;2023-05-27T01:43:28;15.73;;;5.75;;
67195;SDS011;54122;53.538;49.366;2023-05-27T01:45:54;24.80;;;6.63;;
67195;SDS011;54122;53.538;49.366;2023-05-27T01:48:20;13.68;;;4.53;;
67195;SDS011;54122;53.538;49.366;2023-05-27T01:50:47;13.25;;;5.70;;
67195;SDS011;54122;53.538;49.366;2023-05-27T01:53:13;27.00;;;4.53;;
67195;SDS011;54122;53.538;49.366;2023-05-27T01:55:39;25.05;;;5.13;;
67195;SDS011;54122;53.538;49.366;2023-05-27T01:58:05;24.63;;;4.93;;
67195;SDS011;54122;53.538;49.366;2023-05-27T02:00:32;22.40;;;5.63;;
67195;SDS011;54122;53.538;49.366;2023-05-27T02:02:58;22.60;;;4.80;;
67195;SDS011;54122;53.538;49.366;2023-05-27T02:05:24;17.02;;;5.13;;
67195;SDS011;54122;53.538;49.366;2023-05-27T02:07:50;21.20;;;5.30;;
67195;SDS011;54122;53.538;49.366;2023-05-27T02:10:16;14.52;;;4.80;;
67195;SDS011;54122;53.538;49.366;2023-05-27T02:12:42;17.42;;;4.78;;
67195;SDS011;54122;53.538;49.366;2023-05-27T02:15:09;26.55;;;4.85;;
67195;SDS011;54122;53.538;49.366;2023-05-27T02:17:35;18.20;;;5.05;;
67195;SDS011;54122;53.538;49.366;2023-05-27T02:20:03;16.20;;;5.32;;
67195;SDS011;54122;53.538;49.366;2023-05-27T02:22:33;20.88;;;5.30;;
67195;SDS011;54122;53.538;49.366;2023-05-27T02:24:59;12.50;;;4.82;;
67195;SDS011;54122;53.538;49.366;2023-05-27T02:27:25;15.13;;;5.20;;
67195;SDS011;54122;53.538;49.366;2023-05-27T02:29:52;15.40;;;4.85;;
67195;SDS011;54122;53.538;49.366;2023-05-27T02:32:18;19.45;;;5.82;;
67195;SDS011;54122;53.538;49.366;2023-05-27T02:34:44;22.10;;;5.18;;
67195;SDS011;54122;53.538;49.366;2023-05-27T02:37:10;18.98;;;4.72;;
67195;SDS011;54122;53.538;49.366;2023-05-27T02:39:38;17.85;;;4.68;;
67195;SDS011;54122;53.538;49.366;2023-05-27T02:42:04;21.27;;;4.35;;
67195;SDS011;54122;53.538;49.366;2023-05-27T02:44:31;18.52;;;4.25;;
67195;SDS011;54122;53.538;49.366;2023-05-27T02:46:57;27.77;;;5.30;;
67195;SDS011;54122;53.538;49.366;2023-05-27T02:49:24;23.85;;;4.57;;
67195;SDS011;54122;53.538;49.366;2023-05-27T02:51:50;16.30;;;4.68;;
67195;SDS011;54122;53.538;49.366;2023-05-27T02:54:16;12.52;;;4.68;;
67195;SDS011;54122;53.538;49.366;2023-05-27T02:56:42;23.77;;;5.35;;
67195;SDS011;54122;53.538;49.366;2023-05-27T02:59:09;20.48;;;5.10;;
67195;SDS011;54122;53.538;49.366;2023-05-27T03:01:35;16.90;;;5.93;;
67195;SDS011;54122;53.538;49.366;2023-05-27T03:04:02;13.73;;;4.47;;
67195;SDS011;54122;53.538;49.366;2023-05-27T03:06:28;20.30;;;5.28;;
67195;SDS011;54122;53.538;49.366;2023-05-27T03:08:54;30.65;;;5.47;;
67195;SDS011;54122;53.538;49.366;2023-05-27T03:11:20;15.63;;;4.85;;
67195;SDS011;54122;53.538;49.366;2023-05-27T03:13:47;20.60;;;4.45;;
67195;SDS011;54122;53.538;49.366;2023-05-27T03:16:13;18.33;;;5.35;;
67195;SDS011;54122;53.538;49.366;2023-05-27T03:18:39;10.90;;;3.80;;
67195;SDS011;54122;53.538;49.366;2023-05-27T03:21:06;23.40;;;5.40;;
67195;SDS011;54122;53.538;49.366;2023-05-27T03:23:32;25.23;;;4.65;;
67195;SDS011;54122;53.538;49.366;2023-05-27T03:25:58;23.23;;;5.63;;
67195;SDS011;54122;53.538;49.366;2023-05-27T03:28:24;21.50;;;4.75;;
67195;SDS011;54122;53.538;49.366;2023-05-27T03:30:51;26.15;;;4.72;;
67195;SDS011;54122;53.538;49.366;2023-05-27T03:33:22;29.70;;;6.05;;
67195;SDS011;54122;53.538;49.366;2023-05-27T03:35:48;14.18;;;5.20;;
67195;SDS011;54122;53.538;49.366;2023-05-27T03:38:15;20.73;;;5.30;;
67195;SDS011;54122;53.538;49.366;2023-05-27T03:40:42;19.85;;;4.97;;
67195;SDS011;54122;53.538;49.366;2023-05-27T03:43:08;25.38;;;5.82;;
67195;SDS011;54122;53.538;49.366;2023-05-27T03:45:34;33.15;;;5.47;;
67195;SDS011;54122;53.538;49.366;2023-05-27T03:48:00;27.42;;;5.43;;
67195;SDS011;54122;53.538;49.366;2023-05-27T03:50:27;24.15;;;5.38;;
67195;SDS011;54122;53.538;49.366;2023-05-27T03:52:53;18.50;;;5.40;;
67195;SDS011;54122;53.538;49.366;2023-05-27T03:55:19;20.13;;;6.05;;
67195;SDS011;54122;53.538;49.366;2023-05-27T03:57:48;20.77;;;6.10;;
67195;SDS011;54122;53.538;49.366;2023-05-27T04:00:14;17.08;;;5.80;;
67195;SDS011;54122;53.538;49.366;2023-05-27T04:02:42;18.25;;;5.57;;
67195;SDS011;54122;53.538;49.366;2023-05-27T04:05:08;23.50;;;5.90;;
67195;SDS011;54122;53.538;49.366;2023-05-27T04:07:35;20.40;;;5.70;;
67195;SDS011;54122;53.538;49.366;2023-05-27T04:10:01;21.08;;;5.10;;
67195;SDS011;54122;53.538;49.366;2023-05-27T04:12:28;24.73;;;6.25;;
67195;SDS011;54122;53.538;49.366;2023-05-27T04:14:54;17.35;;;6.00;;
67195;SDS011;54122;53.538;49.366;2023-05-27T04:17:21;33.63;;;5.70;;
67195;SDS011;54122;53.538;49.366;2023-05-27T04:19:47;23.65;;;4.85;;
67195;SDS011;54122;53.538;49.366;2023-05-27T04:22:14;22.40;;;5.65;;
67195;SDS011;54122;53.538;49.366;2023-05-27T04:24:40;29.30;;;5.95;;
67195;SDS011;54122;53.538;49.366;2023-05-27T04:27:08;25.27;;;5.25;;
67195;SDS011;54122;53.538;49.366;2023-05-27T04:29:35;29.35;;;5.85;;
67195;SDS011;54122;53.538;49.366;2023-05-27T04:32:03;22.80;;;6.28;;
67195;SDS011;54122;53.538;49.366;2023-05-27T04:34:30;27.92;;;4.97;;
67195;SDS011;54122;53.538;49.366;2023-05-27T04:36:57;19.80;;;5.53;;
67195;SDS011;54122;53.538;49.366;2023-05-27T04:39:23;27.25;;;5.97;;
67195;SDS011;54122;53.538;49.366;2023-05-27T04:41:51;19.90;;;5.63;;
67195;SDS011;54122;53.538;49.366;2023-05-27T04:44:17;29.42;;;5.40;;
67195;SDS011;54122;53.538;49.366;2023-05-27T04:46:43;23.65;;;5.60;;
67195;SDS011;54122;53.538;49.366;2023-05-27T04:49:09;27.63;;;5.55;;
67195;SDS011;54122;53.538;49.366;2023-05-27T04:51:36;19.10;;;5.18;;
67195;SDS011;54122;53.538;49.366;2023-05-27T04:54:02;30.75;;;5.32;;
67195;SDS011;54122;53.538;49.366;2023-05-27T04:56:29;25.52;;;4.88;;
67195;SDS011;54122;53.538;49.366;2023-05-27T04:58:55;12.77;;;4.10;;
67195;SDS011;54122;53.538;49.366;2023-05-27T05:01:21;21.48;;;4.68;;
67195;SDS011;54122;53.538;49.366;2023-05-27T05:03:50;23.48;;;4.47;;
67195;SDS011;54122;53.538;49.366;2023-05-27T05:06:28;25.15;;;4.50;;
67195;SDS011;54122;53.538;49.366;2023-05-27T05:08:54;27.65;;;4.93;;
67195;SDS011;54122;53.538;49.366;2023-05-27T05:11:21;23.15;;;4.80;;
67195;SDS011;54122;53.538;49.366;2023-05-27T05:13:47;15.77;;;4.60;;
67195;SDS011;54122;53.538;49.366;2023-05-27T05:16:13;19.15;;;4.43;;
67195;SDS011;54122;53.538;49.366;2023-05-27T05:18:39;21.88;;;4.22;;
67195;SDS011;54122;53.538;49.366;2023-05-27T05:21:06;24.42;;;4.20;;
67195;SDS011;54122;53.538;49.366;2023-05-27T05:23:32;28.30;;;4.53;;
67195;SDS011;54122;53.538;49.366;2023-05-27T05:25:58;21.52;;;3.95;;
67195;SDS011;54122;53.538;49.366;2023-05-27T05:28:32;25.05;;;4.35;;
67195;SDS011;54122;53.538;49.366;2023-05-27T05:33:44;17.88;;;3.90;;
67195;SDS011;54122;53.538;49.366;2023-05-27T05:36:10;22.55;;;3.88;;
67195;SDS011;54122;53.538;49.366;2023-05-27T05:38:37;24.02;;;4.45;;
67195;SDS011;54122;53.538;49.366;2023-05-27T05:41:03;20.02;;;5.18;;
67195;SDS011;54122;53.538;49.366;2023-05-27T05:43:30;21.17;;;4.32;;
67195;SDS011;54122;53.538;49.366;2023-05-27T05:45:56;19.63;;;4.10;;
67195;SDS011;54122;53.538;49.366;2023-05-27T05:48:25;30.48;;;4.78;;
67195;SDS011;54122;53.538;49.366;2023-05-27T05:50:51;28.23;;;4.45;;
67195;SDS011;54122;53.538;49.366;2023-05-27T05:53:17;29.30;;;4.57;;
67195;SDS011;54122;53.538;49.366;2023-05-27T05:55:43;23.35;;;4.43;;
67195;SDS011;54122;53.538;49.366;2023-05-27T05:58:09;18.23;;;4.90;;
67195;SDS011;54122;53.538;49.366;2023-05-27T06:00:36;23.23;;;5.00;;
67195;SDS011;54122;53.538;49.366;2023-05-27T06:03:02;21.17;;;5.20;;
67195;SDS011;54122;53.538;49.366;2023-05-27T06:05:28;24.70;;;6.25;;
67195;SDS011;54122;53.538;49.366;2023-05-27T06:07:54;27.80;;;5.45;;
67195;SDS011;54122;53.538;49.366;2023-05-27T06:13:05;20.88;;;5.32;;
67195;SDS011;54122;53.538;49.366;2023-05-27T06:15:32;30.38;;;5.40;;
67195;SDS011;54122;53.538;49.366;2023-05-27T06:17:58;20.40;;;5.70;;
67195;SDS011;54122;53.538;49.366;2023-05-27T06:20:43;42.75;;;6.15;;
67195;SDS011;54122;53.538;49.366;2023-05-27T06:23:09;28.92;;;5.47;;
67195;SDS011;54122;53.538;49.366;2023-05-27T06:25:54;23.05;;;5.72;;
67195;SDS011;54122;53.538;49.366;2023-05-27T06:28:20;21.30;;;5.75;;
67195;SDS011;54122;53.538;49.366;2023-05-27T06:36:17;32.50;;;5.57;;
67195;SDS011;54122;53.538;49.366;2023-05-27T06:38:44;23.50;;;5.18;;
67195;SDS011;54122;53.538;49.366;2023-05-27T06:41:29;33.20;;;5.63;;
67195;SDS011;54122;53.538;49.366;2023-05-27T06:44:14;25.17;;;4.97;;
67195;SDS011;54122;53.538;49.366;2023-05-27T06:46:58;22.65;;;5.07;;
67195;SDS011;54122;53.538;49.366;2023-05-27T06:49:27;22.45;;;4.63;;
67195;SDS011;54122;53.538;49.366;2023-05-27T06:51:53;24.25;;;5.55;;
67195;SDS011;54122;53.538;49.366;2023-05-27T06:54:38;27.00;;;4.75;;
67195;SDS011;54122;53.538;49.366;2023-05-27T06:57:23;22.98;;;4.78;;
67195;SDS011;54122;53.538;49.366;2023-05-27T07:00:08;27.42;;;5.80;;
67195;SDS011;54122;53.538;49.366;2023-05-27T07:02:34;24.42;;;5.70;;
67195;SDS011;54122;53.538;49.366;2023-05-27T07:05:01;23.38;;;5.57;;
67195;SDS011;54122;53.538;49.366;2023-05-27T07:07:48;32.90;;;5.88;;
67195;SDS011;54122;53.538;49.366;2023-05-27T07:10:14;25.52;;;5.65;;
67195;SDS011;54122;53.538;49.366;2023-05-27T07:12:41;27.42;;;5.70;;
67195;SDS011;54122;53.538;49.366;2023-05-27T07:15:07;25.30;;;5.32;;
67195;SDS011;54122;53.538;49.366;2023-05-27T07:17:34;20.52;;;5.32;;
67195;SDS011;54122;53.538;49.366;2023-05-27T07:23:04;29.73;;;5.45;;
67195;SDS011;54122;53.538;49.366;2023-05-27T07:25:48;22.80;;;5.32;;
67195;SDS011;54122;53.538;49.366;2023-05-27T07:28:15;29.88;;;6.13;;
67195;SDS011;54122;53.538;49.366;2023-05-27T07:30:42;22.58;;;5.10;;
67195;SDS011;54122;53.538;49.366;2023-05-27T07:33:08;28.17;;;5.45;;
67195;SDS011;54122;53.538;49.366;2023-05-27T07:35:53;29.55;;;5.72;;
67195;SDS011;54122;53.538;49.366;2023-05-27T07:38:19;28.73;;;5.50;;
67195;SDS011;54122;53.538;49.366;2023-05-27T07:40:46;26.08;;;5.18;;
67195;SDS011;54122;53.538;49.366;2023-05-27T07:43:12;29.38;;;5.00;;
67195;SDS011;54122;53.538;49.366;2023-05-27T07:45:38;33.92;;;5.25;;
67195;SDS011;54122;53.538;49.366;2023-05-27T07:48:05;31.92;;;5.50;;
67195;SDS011;54122;53.538;49.366;2023-05-27T07:50:31;26.95;;;5.28;;
67195;SDS011;54122;53.538;49.366;2023-05-27T07:52:57;28.77;;;5.63;;
67195;SDS011;54122;53.538;49.366;2023-05-27T07:55:23;24.58;;;5.10;;
67195;SDS011;54122;53.538;49.366;2023-05-27T07:57:50;25.55;;;4.95;;
67195;SDS011;54122;53.538;49.366;2023-05-27T08:03:05;28.88;;;5.30;;
67195;SDS011;54122;53.538;49.366;2023-05-27T08:05:31;29.67;;;5.40;;
67195;SDS011;54122;53.538;49.366;2023-05-27T08:07:58;31.13;;;5.05;;
67195;SDS011;54122;53.538;49.366;2023-05-27T08:10:43;18.48;;;4.38;;
67195;SDS011;54122;53.538;49.366;2023-05-27T08:13:11;28.60;;;4.65;;
67195;SDS011;54122;53.538;49.366;2023-05-27T08:18:22;29.13;;;4.70;;
67195;SDS011;54122;53.538;49.366;2023-05-27T08:20:48;28.52;;;5.60;;
67195;SDS011;54122;53.538;49.366;2023-05-27T08:23:15;30.40;;;5.30;;
67195;SDS011;54122;53.538;49.366;2023-05-27T08:25:41;30.05;;;5.25;;
67195;SDS011;54122;53.538;49.366;2023-05-27T08:28:07;24.38;;;4.85;;
67195;SDS011;54122;53.538;49.366;2023-05-27T08:30:34;34.55;;;5.15;;
67195;SDS011;54122;53.538;49.366;2023-05-27T08:33:18;30.50;;;4.20;;
67195;SDS011;54122;53.538;49.366;2023-05-27T08:35:45;30.20;;;4.93;;
67195;SDS011;54122;53.538;49.366;2023-05-27T08:38:30;24.95;;;4.97;;
67195;SDS011;54122;53.538;49.366;2023-05-27T08:40:57;23.00;;;4.53;;
67195;SDS011;54122;53.538;49.366;2023-05-27T08:46:10;30.33;;;4.75;;
67195;SDS011;54122;53.538;49.366;2023-05-27T08:48:36;21.88;;;4.68;;
67195;SDS011;54122;53.538;49.366;2023-05-27T08:51:03;24.00;;;4.13;;
67195;SDS011;54122;53.538;49.366;2023-05-27T08:53:31;26.83;;;4.10;;
67195;SDS011;54122;53.538;49.366;2023-05-27T08:59:02;24.60;;;5.55;;
67195;SDS011;54122;53.538;49.366;2023-05-27T09:01:29;59.65;;;4.97;;
67195;SDS011;54122;53.538;49.366;2023-05-27T09:04:14;29.73;;;5.03;;
67195;SDS011;54122;53.538;49.366;2023-05-27T09:06:40;25.52;;;5.20;;
67195;SDS011;54122;53.538;49.366;2023-05-27T09:09:07;26.98;;;4.43;;
67195;SDS011;54122;53.538;49.366;2023-05-27T09:11:38;38.67;;;5.20;;
67195;SDS011;54122;53.538;49.366;2023-05-27T09:14:06;22.23;;;4.43;;
67195;SDS011;54122;53.538;49.366;2023-05-27T09:16:32;32.08;;;4.97;;
67195;SDS011;54122;53.538;49.366;2023-05-27T09:18:58;20.05;;;4.97;;
67195;SDS011;54122;53.538;49.366;2023-05-27T09:21:25;24.48;;;4.35;;
67195;SDS011;54122;53.538;49.366;2023-05-27T09:24:09;20.08;;;4.20;;
67195;SDS011;54122;53.538;49.366;2023-05-27T09:26:36;23.17;;;4.15;;
67195;SDS011;54122;53.538;49.366;2023-05-27T09:29:06;17.85;;;3.90;;
67195;SDS011;54122;53.538;49.366;2023-05-27T09:31:40;30.70;;;4.70;;
67195;SDS011;54122;53.538;49.366;2023-05-27T09:36:54;14.68;;;3.80;;
67195;SDS011;54122;53.538;49.366;2023-05-27T09:39:40;22.70;;;4.55;;
67195;SDS011;54122;53.538;49.366;2023-05-27T09:42:07;19.65;;;4.65;;
67195;SDS011;54122;53.538;49.366;2023-05-27T09:44:36;25.33;;;4.88;;
67195;SDS011;54122;53.538;49.366;2023-05-27T09:47:21;35.45;;;4.88;;
67195;SDS011;54122;53.538;49.366;2023-05-27T09:49:49;22.45;;;4.57;;
67195;SDS011;54122;53.538;49.366;2023-05-27T09:52:36;19.27;;;4.10;;
67195;SDS011;54122;53.538;49.366;2023-05-27T09:55:06;37.60;;;6.05;;
67195;SDS011;54122;53.538;49.366;2023-05-27T09:57:51;27.95;;;6.13;;
67195;SDS011;54122;53.538;49.366;2023-05-27T10:00:17;17.83;;;4.20;;
67195;SDS011;54122;53.538;49.366;2023-05-27T10:02:45;23.70;;;4.93;;
67195;SDS011;54122;53.538;49.366;2023-05-27T10:05:13;21.08;;;4.63;;
67195;SDS011;54122;53.538;49.366;2023-05-27T10:07:44;14.50;;;4.18;;
67195;SDS011;54122;53.538;49.366;2023-05-27T10:10:12;36.08;;;4.32;;
67195;SDS011;54122;53.538;49.366;2023-05-27T10:12:46;26.98;;;5.70;;
67195;SDS011;54122;53.538;49.366;2023-05-27T10:17:49;27.20;;;5.00;;
67195;SDS011;54122;53.538;49.366;2023-05-27T10:20:36;34.80;;;5.85;;
67195;SDS011;54122;53.538;49.366;2023-05-27T10:26:06;20.88;;;4.82;;
67195;SDS011;54122;53.538;49.366;2023-05-27T10:31:44;14.63;;;4.03;;
67195;SDS011;54122;53.538;49.366;2023-05-27T10:34:14;19.95;;;4.55;;
67195;SDS011;54122;53.538;49.366;2023-05-27T10:36:40;28.63;;;6.55;;
67195;SDS011;54122;53.538;49.366;2023-05-27T10:42:11;24.85;;;6.35;;
67195;SDS011;54122;53.538;49.366;2023-05-27T10:44:47;26.10;;;5.22;;
67195;SDS011;54122;53.538;49.366;2023-05-27T10:50:09;24.83;;;4.47;;
67195;SDS011;54122;53.538;49.366;2023-05-27T10:52:54;29.38;;;4.68;;
67195;SDS011;54122;53.538;49.366;2023-05-27T10:55:21;26.17;;;5.10;;
67195;SDS011;54122;53.538;49.366;2023-05-27T10:57:48;24.25;;;5.18;;
67195;SDS011;54122;53.538;49.366;2023-05-27T11:02:59;23.58;;;5.35;;
67195;SDS011;54122;53.538;49.366;2023-05-27T11:05:29;20.33;;;4.40;;
67195;SDS011;54122;53.538;49.366;2023-05-27T11:07:58;28.77;;;5.30;;
67195;SDS011;54122;53.538;49.366;2023-05-27T11:13:11;27.27;;;5.13;;
67195;SDS011;54122;53.538;49.366;2023-05-27T11:16:14;24.23;;;5.30;;
67195;SDS011;54122;53.538;49.366;2023-05-27T11:18:45;33.70;;;5.45;;
67195;SDS011;54122;53.538;49.366;2023-05-27T11:21:13;20.60;;;4.32;;
67195;SDS011;54122;53.538;49.366;2023-05-27T11:23:44;26.38;;;5.20;;
67195;SDS011;54122;53.538;49.366;2023-05-27T11:29:16;21.02;;;4.55;;
67195;SDS011;54122;53.538;49.366;2023-05-27T11:31:46;20.35;;;4.88;;
67195;SDS011;54122;53.538;49.366;2023-05-27T11:34:16;27.25;;;5.30;;
67195;SDS011;54122;53.538;49.366;2023-05-27T11:36:48;18.15;;;4.82;;
67195;SDS011;54122;53.538;49.366;2023-05-27T11:42:22;31.75;;;5.45;;
67195;SDS011;54122;53.538;49.366;2023-05-27T11:44:52;16.50;;;5.03;;
67195;SDS011;54122;53.538;49.366;2023-05-27T11:47:19;23.08;;;5.45;;
67195;SDS011;54122;53.538;49.366;2023-05-27T11:50:24;17.90;;;5.05;;
67195;SDS011;54122;53.538;49.366;2023-05-27T11:53:09;24.17;;;4.90;;
67195;SDS011;54122;53.538;49.366;2023-05-27T11:55:35;26.17;;;5.15;;
67195;SDS011;54122;53.538;49.366;2023-05-27T12:00:46;22.05;;;4.78;;
67195;SDS011;54122;53.538;49.366;2023-05-27T12:03:12;32.90;;;5.65;;
67195;SDS011;54122;53.538;49.366;2023-05-27T12:05:39;24.00;;;5.35;;
67195;SDS011;54122;53.538;49.366;2023-05-27T12:08:05;18.83;;;4.47;;
67195;SDS011;54122;53.538;49.366;2023-05-27T12:13:35;19.83;;;5.20;;
67195;SDS011;54122;53.538;49.366;2023-05-27T12:16:02;22.60;;;5.10;;
67195;SDS011;54122;53.538;49.366;2023-05-27T12:18:46;25.88;;;4.95;;
67195;SDS011;54122;53.538;49.366;2023-05-27T12:21:14;17.08;;;4.70;;
67195;SDS011;54122;53.538;49.366;2023-05-27T12:23:40;24.98;;;5.50;;
67195;SDS011;54122;53.538;49.366;2023-05-27T12:26:07;22.70;;;5.57;;
67195;SDS011;54122;53.538;49.366;2023-05-27T12:28:52;26.20;;;5.30;;
67195;SDS011;54122;53.538;49.366;2023-05-27T12:31:18;21.67;;;5.82;;
67195;SDS011;54122;53.538;49.366;2023-05-27T12:33:44;19.33;;;4.80;;
67195;SDS011;54122;53.538;49.366;2023-05-27T12:36:11;23.35;;;5.25;;
67195;SDS011;54122;53.538;49.366;2023-05-27T12:38:37;24.48;;;6.07;;
67195;SDS011;54122;53.538;49.366;2023-05-27T12:41:04;30.52;;;7.07;;
67195;SDS011;54122;53.538;49.366;2023-05-27T12:43:30;32.60;;;10.32;;
67195;SDS011;54122;53.538;49.366;2023-05-27T12:45:56;27.80;;;8.13;;
67195;SDS011;54122;53.538;49.366;2023-05-27T12:48:24;20.05;;;5.70;;
67195;SDS011;54122;53.538;49.366;2023-05-27T12:50:50;25.45;;;5.78;;
67195;SDS011;54122;53.538;49.366;2023-05-27T12:53:16;22.50;;;5.93;;
67195;SDS011;54122;53.538;49.366;2023-05-27T12:55:43;25.33;;;5.82;;
67195;SDS011;54122;53.538;49.366;2023-05-27T12:58:12;18.77;;;6.88;;
67195;SDS011;54122;53.538;49.366;2023-05-27T13:00:38;28.63;;;6.45;;
67195;SDS011;54122;53.538;49.366;2023-05-27T13:03:04;29.33;;;7.90;;
67195;SDS011;54122;53.538;49.366;2023-05-27T13:05:31;28.92;;;7.68;;
67195;SDS011;54122;53.538;49.366;2023-05-27T13:07:57;29.67;;;7.97;;
67195;SDS011;54122;53.538;49.366;2023-05-27T13:10:25;31.38;;;9.23;;
67195;SDS011;54122;53.538;49.366;2023-05-27T13:13:10;32.75;;;9.75;;
67195;SDS011;54122;53.538;49.366;2023-05-27T13:15:55;71.72;;;35.58;;
67195;SDS011;54122;53.538;49.366;2023-05-27T13:18:39;71.88;;;39.10;;
67195;SDS011;54122;53.538;49.366;2023-05-27T13:21:06;71.47;;;35.80;;
67195;SDS011;54122;53.538;49.366;2023-05-27T13:26:36;27.50;;;8.70;;
67195;SDS011;54122;53.538;49.366;2023-05-27T13:29:02;25.77;;;6.97;;
67195;SDS011;54122;53.538;49.366;2023-05-27T13:31:28;30.13;;;7.45;;
67195;SDS011;54122;53.538;49.366;2023-05-27T13:34:13;26.48;;;7.03;;
67195;SDS011;54122;53.538;49.366;2023-05-27T13:36:39;75.65;;;39.38;;
67195;SDS011;54122;53.538;49.366;2023-05-27T13:39:43;154.65;;;90.05;;
67195;SDS011;54122;53.538;49.366;2023-05-27T13:42:09;72.22;;;37.08;;
67195;SDS011;54122;53.538;49.366;2023-05-27T13:44:36;51.53;;;17.98;;
67195;SDS011;54122;53.538;49.366;2023-05-27T13:47:02;53.75;;;27.38;;
67195;SDS011;54122;53.538;49.366;2023-05-27T13:49:28;36.70;;;14.07;;
67195;SDS011;54122;53.538;49.366;2023-05-27T13:51:55;33.13;;;14.63;;
67195;SDS011;54122;53.538;49.366;2023-05-27T13:54:21;31.63;;;10.10;;
67195;SDS011;54122;53.538;49.366;2023-05-27T13:56:48;21.80;;;7.32;;
67195;SDS011;54122;53.538;49.366;2023-05-27T13:59:14;33.28;;;8.02;;
67195;SDS011;54122;53.538;49.366;2023-05-27T14:04:44;37.55;;;11.40;;
67195;SDS011;54122;53.538;49.366;2023-05-27T14:09:56;27.27;;;6.43;;
67195;SDS011;54122;53.538;49.366;2023-05-27T14:12:22;21.75;;;6.15;;
67195;SDS011;54122;53.538;49.366;2023-05-27T14:14:48;24.80;;;7.50;;
67195;SDS011;54122;53.538;49.366;2023-05-27T14:17:14;24.40;;;7.20;;
67195;SDS011;54122;53.538;49.366;2023-05-27T14:19:41;33.40;;;9.75;;
67195;SDS011;54122;53.538;49.366;2023-05-27T14:22:07;27.10;;;7.20;;
67195;SDS011;54122;53.538;49.366;2023-05-27T14:27:19;22.60;;;7.60;;
67195;SDS011;54122;53.538;49.366;2023-05-27T14:30:04;31.17;;;8.30;;
67195;SDS011;54122;53.538;49.366;2023-05-27T14:33:08;19.65;;;7.15;;
67195;SDS011;54122;53.538;49.366;2023-05-27T14:35:52;26.85;;;8.35;;
67195;SDS011;54122;53.538;49.366;2023-05-27T14:38:37;31.52;;;7.28;;
67195;SDS011;54122;53.538;49.366;2023-05-27T14:41:04;26.17;;;8.15;;
67195;SDS011;54122;53.538;49.366;2023-05-27T14:43:30;23.92;;;7.45;;
67195;SDS011;54122;53.538;49.366;2023-05-27T14:45:56;25.80;;;8.70;;
67195;SDS011;54122;53.538;49.366;2023-05-27T14:51:26;28.70;;;8.15;;
67195;SDS011;54122;53.538;49.366;2023-05-27T14:53:52;28.15;;;7.47;;
67195;SDS011;54122;53.538;49.366;2023-05-27T14:56:19;25.05;;;7.47;;
67195;SDS011;54122;53.538;49.366;2023-05-27T14:58:45;25.42;;;8.57;;
67195;SDS011;54122;53.538;49.366;2023-05-27T15:01:15;35.75;;;9.45;;
67195;SDS011;54122;53.538;49.366;2023-05-27T15:03:42;38.58;;;9.65;;
67195;SDS011;54122;53.538;49.366;2023-05-27T15:06:08;45.20;;;9.88;;
67195;SDS011;54122;53.538;49.366;2023-05-27T15:08:36;33.78;;;8.63;;
67195;SDS011;54122;53.538;49.366;2023-05-27T15:11:02;30.88;;;8.35;;
67195;SDS011;54122;53.538;49.366;2023-05-27T15:13:47;29.25;;;8.40;;
67195;SDS011;54122;53.538;49.366;2023-05-27T15:16:13;47.28;;;8.93;;
67195;SDS011;54122;53.538;49.366;2023-05-27T15:18:39;30.98;;;8.82;;
67195;SDS011;54122;53.538;49.366;2023-05-27T15:21:06;32.40;;;8.85;;
67195;SDS011;54122;53.538;49.366;2023-05-27T15:23:33;34.88;;;8.40;;
67195;SDS011;54122;53.538;49.366;2023-05-27T15:26:18;32.97;;;8.85;;
67195;SDS011;54122;53.538;49.366;2023-05-27T15:31:29;34.25;;;10.45;;
67195;SDS011;54122;53.538;49.366;2023-05-27T15:34:13;45.60;;;16.13;;
67195;SDS011;54122;53.538;49.366;2023-05-27T15:36:58;69.97;;;26.85;;
67195;SDS011;54122;53.538;49.366;2023-05-27T15:39:24;66.45;;;22.27;;
67195;SDS011;54122;53.538;49.366;2023-05-27T15:41:50;52.55;;;16.35;;
67195;SDS011;54122;53.538;49.366;2023-05-27T15:44:17;34.30;;;11.75;;
67195;SDS011;54122;53.538;49.366;2023-05-27T15:47:01;27.42;;;8.90;;
67195;SDS011;54122;53.538;49.366;2023-05-27T15:49:27;28.48;;;8.60;;
67195;SDS011;54122;53.538;49.366;2023-05-27T15:52:12;41.85;;;9.80;;
67195;SDS011;54122;53.538;49.366;2023-05-27T15:54:39;23.10;;;8.50;;